sensor_id;sensor_type;location;lat;lon;timestamp;pressure;altitude;pressure_sealevel;temperature;humidity
48964;BME280;34776;48.180;16.420;2023-05-23T00:08:21;99356.78;;;18.65;65.68
48964;BME280;34776;48.180;16.420;2023-05-23T00:10:46;99359.03;;;18.60;66.20
48964;BME280;34776;48.180;16.420;2023-05-23T00:13:12;99367.53;;;18.55;66.22
48964;BME280;34776;48.180;16.420;2023-05-23T00:15:39;99364.28;;;18.52;66.35
48964;BME280;34776;48.180;16.420;2023-05-23T00:33:46;99364.41;;;18.40;67.26
48964;BME280;34776;48.180;16.420;2023-05-23T00:45:21;99356.31;;;18.31;66.88
48964;BME280;34776;48.180;16.420;2023-05-23T01:03:18;99375.25;;;18.10;68.86
48964;BME280;34776;48.180;16.420;2023-05-23T01:05:44;99364.78;;;18.07;68.56
48964;BME280;34776;48.180;16.420;2023-05-23T01:38:49;99353.44;;;17.62;69.80
48964;BME280;34776;48.180;16.420;2023-05-23T01:41:15;99352.44;;;17.63;70.02
48964;BME280;34776;48.180;16.420;2023-05-23T01:46:15;99353.56;;;17.61;69.43
48964;BME280;34776;48.180;16.420;2023-05-23T01:59:40;99329.31;;;17.51;69.86
48964;BME280;34776;48.180;16.420;2023-05-23T02:07:16;99326.50;;;17.43;70.03
48964;BME280;34776;48.180;16.420;2023-05-23T02:09:42;99333.13;;;17.39;70.20
48964;BME280;34776;48.180;16.420;2023-05-23T02:12:09;99335.22;;;17.35;70.39
48964;BME280;34776;48.180;16.420;2023-05-23T02:14:34;99340.13;;;17.30;70.87
48964;BME280;34776;48.180;16.420;2023-05-23T02:17:01;99324.41;;;17.25;70.47
48964;BME280;34776;48.180;16.420;2023-05-23T02:19:26;99328.94;;;17.25;70.35
48964;BME280;34776;48.180;16.420;2023-05-23T02:42:33;99311.31;;;17.11;71.03
48964;BME280;34776;48.180;16.420;2023-05-23T02:44:59;99314.16;;;17.10;70.76
48964;BME280;34776;48.180;16.420;2023-05-23T02:52:35;99321.63;;;17.06;71.25
48964;BME280;34776;48.180;16.420;2023-05-23T02:55:01;99316.53;;;17.03;71.41
48964;BME280;34776;48.180;16.420;2023-05-23T02:57:26;99324.72;;;17.01;71.32
48964;BME280;34776;48.180;16.420;2023-05-23T02:59:51;99315.66;;;17.02;71.19
48964;BME280;34776;48.180;16.420;2023-05-23T03:22:58;99322.16;;;17.00;72.15
48964;BME280;34776;48.180;16.420;2023-05-23T03:27:58;99326.69;;;16.99;72.03
48964;BME280;34776;48.180;16.420;2023-05-23T03:30:24;99326.81;;;16.98;72.42
48964;BME280;34776;48.180;16.420;2023-05-23T03:32:49;99327.28;;;17.03;72.41
48964;BME280;34776;48.180;16.420;2023-05-23T04:19:34;99349.38;;;17.78;71.30
48964;BME280;34776;48.180;16.420;2023-05-23T04:22:00;99351.81;;;17.81;71.07
48964;BME280;34776;48.180;16.420;2023-05-23T04:35:56;99339.63;;;18.27;70.69
48964;BME280;34776;48.180;16.420;2023-05-23T04:38:22;99344.03;;;18.48;69.88
48964;BME280;34776;48.180;16.420;2023-05-23T04:40:49;99348.16;;;18.61;69.41
48964;BME280;34776;48.180;16.420;2023-05-23T04:43:15;99341.06;;;18.70;69.19
48964;BME280;34776;48.180;16.420;2023-05-23T04:45:40;99351.56;;;18.73;69.48
48964;BME280;34776;48.180;16.420;2023-05-23T04:48:06;99356.34;;;18.60;70.80
48964;BME280;34776;48.180;16.420;2023-05-23T04:58:17;99359.19;;;18.78;71.62
48964;BME280;34776;48.180;16.420;2023-05-23T05:00:43;99359.19;;;18.78;71.62
48964;BME280;34776;48.180;16.420;2023-05-23T05:27:47;99350.53;;;19.60;69.96
48964;BME280;34776;48.180;16.420;2023-05-23T05:35:23;99364.94;;;19.89;67.66
48964;BME280;34776;48.180;16.420;2023-05-23T05:37:48;99364.25;;;20.04;67.11
48964;BME280;34776;48.180;16.420;2023-05-23T05:40:14;99368.44;;;20.17;66.49
48964;BME280;34776;48.180;16.420;2023-05-23T05:42:39;99354.75;;;20.28;65.94
48964;BME280;34776;48.180;16.420;2023-05-23T05:45:05;99359.25;;;20.37;65.60
48964;BME280;34776;48.180;16.420;2023-05-23T05:47:30;99357.16;;;20.49;65.34
48964;BME280;34776;48.180;16.420;2023-05-23T05:49:56;99359.88;;;20.67;64.84
48964;BME280;34776;48.180;16.420;2023-05-23T05:52:21;99353.63;;;20.84;64.10
48964;BME280;34776;48.180;16.420;2023-05-23T05:54:46;99354.78;;;21.00;63.29
48964;BME280;34776;48.180;16.420;2023-05-23T05:57:12;99344.41;;;21.13;62.92
48964;BME280;34776;48.180;16.420;2023-05-23T05:59:37;99349.22;;;21.27;61.92
48964;BME280;34776;48.180;16.420;2023-05-23T06:02:03;99345.91;;;21.34;61.79
48964;BME280;34776;48.180;16.420;2023-05-23T06:04:28;99354.34;;;21.39;61.74
48964;BME280;34776;48.180;16.420;2023-05-23T06:06:53;99344.84;;;21.53;61.63
48964;BME280;34776;48.180;16.420;2023-05-23T06:09:18;99343.03;;;21.61;61.07
48964;BME280;34776;48.180;16.420;2023-05-23T06:11:44;99341.41;;;21.77;60.65
48964;BME280;34776;48.180;16.420;2023-05-23T06:14:10;99350.28;;;21.95;59.61
48964;BME280;34776;48.180;16.420;2023-05-23T06:16:35;99343.75;;;22.14;59.14
48964;BME280;34776;48.180;16.420;2023-05-23T06:19:01;99341.31;;;22.45;58.16
48964;BME280;34776;48.180;16.420;2023-05-23T06:21:26;99349.78;;;22.67;57.79
48964;BME280;34776;48.180;16.420;2023-05-23T06:23:52;99346.84;;;24.06;54.97
48964;BME280;34776;48.180;16.420;2023-05-23T06:26:17;99338.97;;;25.80;50.23
48964;BME280;34776;48.180;16.420;2023-05-23T06:28:42;99336.94;;;27.41;46.90
48964;BME280;34776;48.180;16.420;2023-05-23T06:31:08;99328.19;;;29.68;42.88
48964;BME280;34776;48.180;16.420;2023-05-23T06:33:37;99334.00;;;30.82;40.24
48964;BME280;34776;48.180;16.420;2023-05-23T06:36:02;99338.81;;;32.66;37.45
48964;BME280;34776;48.180;16.420;2023-05-23T06:38:30;99338.38;;;34.80;34.32
48964;BME280;34776;48.180;16.420;2023-05-23T06:40:58;99335.16;;;36.39;31.44
48964;BME280;34776;48.180;16.420;2023-05-23T06:43:23;99333.31;;;37.36;30.06
48964;BME280;34776;48.180;16.420;2023-05-23T06:45:48;99335.94;;;38.06;28.15
48964;BME280;34776;48.180;16.420;2023-05-23T06:48:14;99333.75;;;38.18;28.06
48964;BME280;34776;48.180;16.420;2023-05-23T06:50:39;99333.78;;;38.24;27.67
48964;BME280;34776;48.180;16.420;2023-05-23T06:53:05;99324.19;;;38.93;26.83
48964;BME280;34776;48.180;16.420;2023-05-23T06:55:31;99326.66;;;39.61;26.10
48964;BME280;34776;48.180;16.420;2023-05-23T06:57:58;99332.00;;;40.23;25.42
48964;BME280;34776;48.180;16.420;2023-05-23T07:00:24;99326.81;;;40.55;24.38
48964;BME280;34776;48.180;16.420;2023-05-23T07:02:49;99324.13;;;41.14;24.66
48964;BME280;34776;48.180;16.420;2023-05-23T07:05:15;99325.19;;;41.76;23.06
48964;BME280;34776;48.180;16.420;2023-05-23T07:07:44;99314.09;;;42.20;22.29
48964;BME280;34776;48.180;16.420;2023-05-23T07:10:09;99311.34;;;42.90;22.09
48964;BME280;34776;48.180;16.420;2023-05-23T07:12:35;99312.03;;;43.01;21.74
48964;BME280;34776;48.180;16.420;2023-05-23T07:15:00;99318.22;;;43.45;21.88
48964;BME280;34776;48.180;16.420;2023-05-23T07:17:26;99317.53;;;43.81;21.06
48964;BME280;34776;48.180;16.420;2023-05-23T07:19:54;99322.81;;;44.24;20.33
48964;BME280;34776;48.180;16.420;2023-05-23T07:22:19;99310.28;;;44.44;20.07
48964;BME280;34776;48.180;16.420;2023-05-23T07:24:45;99307.34;;;44.26;20.06
48964;BME280;34776;48.180;16.420;2023-05-23T07:27:10;99307.38;;;43.85;20.38
48964;BME280;34776;48.180;16.420;2023-05-23T07:29:35;99304.31;;;43.26;20.25
48964;BME280;34776;48.180;16.420;2023-05-23T07:32:01;99300.78;;;43.20;20.40
48964;BME280;34776;48.180;16.420;2023-05-23T07:37:01;99301.44;;;42.98;20.58
48964;BME280;34776;48.180;16.420;2023-05-23T07:39:27;99301.22;;;42.75;20.45
48964;BME280;34776;48.180;16.420;2023-05-23T07:41:52;99299.88;;;42.35;21.00
48964;BME280;34776;48.180;16.420;2023-05-23T07:44:17;99291.50;;;42.73;20.62
48964;BME280;34776;48.180;16.420;2023-05-23T07:46:43;99294.00;;;43.26;20.61
48964;BME280;34776;48.180;16.420;2023-05-23T07:49:08;99296.22;;;44.35;19.23
48964;BME280;34776;48.180;16.420;2023-05-23T07:51:34;99288.94;;;45.15;18.56
48964;BME280;34776;48.180;16.420;2023-05-23T07:54:00;99291.88;;;45.42;18.38
48964;BME280;34776;48.180;16.420;2023-05-23T07:56:25;99285.91;;;45.66;18.25
48964;BME280;34776;48.180;16.420;2023-05-23T07:58:51;99295.41;;;45.56;17.86
48964;BME280;34776;48.180;16.420;2023-05-23T08:01:16;99292.25;;;45.49;17.95
48964;BME280;34776;48.180;16.420;2023-05-23T08:03:42;99285.53;;;46.25;17.52
48964;BME280;34776;48.180;16.420;2023-05-23T08:06:08;99278.31;;;45.66;17.81
48964;BME280;34776;48.180;16.420;2023-05-23T08:11:08;99272.84;;;44.76;18.06
48964;BME280;34776;48.180;16.420;2023-05-23T08:13:34;99271.81;;;44.72;17.95
48964;BME280;34776;48.180;16.420;2023-05-23T08:15:59;99270.53;;;42.56;20.07
48964;BME280;34776;48.180;16.420;2023-05-23T08:18:25;99266.97;;;39.07;23.34
48964;BME280;34776;48.180;16.420;2023-05-23T08:20:50;99271.38;;;36.24;26.20
48964;BME280;34776;48.180;16.420;2023-05-23T08:23:16;99259.16;;;34.64;27.81
48964;BME280;34776;48.180;16.420;2023-05-23T08:25:42;99273.00;;;33.83;28.97
48964;BME280;34776;48.180;16.420;2023-05-23T08:28:07;99267.56;;;33.00;29.63
48964;BME280;34776;48.180;16.420;2023-05-23T08:30:32;99276.81;;;32.22;29.60
48964;BME280;34776;48.180;16.420;2023-05-23T08:32:58;99274.81;;;31.62;30.21
48964;BME280;34776;48.180;16.420;2023-05-23T08:35:25;99268.28;;;31.19;30.91
48964;BME280;34776;48.180;16.420;2023-05-23T08:37:50;99266.59;;;31.18;31.24
48964;BME280;34776;48.180;16.420;2023-05-23T08:40:20;99260.59;;;31.28;30.91
48964;BME280;34776;48.180;16.420;2023-05-23T08:42:49;99269.28;;;31.25;31.17
48964;BME280;34776;48.180;16.420;2023-05-23T08:45:15;99251.97;;;31.06;31.32
48964;BME280;34776;48.180;16.420;2023-05-23T08:58:02;99254.56;;;30.69;32.14
48964;BME280;34776;48.180;16.420;2023-05-23T09:03:03;99251.25;;;30.35;32.14
48964;BME280;34776;48.180;16.420;2023-05-23T09:05:29;99261.88;;;30.50;32.40
48964;BME280;34776;48.180;16.420;2023-05-23T09:07:54;99251.06;;;30.62;32.51
48964;BME280;34776;48.180;16.420;2023-05-23T09:12:56;99251.53;;;30.77;31.97
48964;BME280;34776;48.180;16.420;2023-05-23T09:15:22;99245.78;;;30.85;32.32
48964;BME280;34776;48.180;16.420;2023-05-23T09:17:48;99247.75;;;31.03;32.30
48964;BME280;34776;48.180;16.420;2023-05-23T09:20:15;99252.94;;;31.11;32.25
48964;BME280;34776;48.180;16.420;2023-05-23T09:22:45;99257.75;;;31.34;31.99
48964;BME280;34776;48.180;16.420;2023-05-23T09:25:11;99257.16;;;31.32;31.79
48964;BME280;34776;48.180;16.420;2023-05-23T09:27:36;99252.44;;;31.40;31.27
48964;BME280;34776;48.180;16.420;2023-05-23T09:30:06;99255.19;;;31.40;30.76
48964;BME280;34776;48.180;16.420;2023-05-23T09:32:32;99255.94;;;31.28;31.41
48964;BME280;34776;48.180;16.420;2023-05-23T09:35:02;99245.72;;;31.35;31.30
48964;BME280;34776;48.180;16.420;2023-05-23T09:40:07;99256.25;;;31.39;30.99
48964;BME280;34776;48.180;16.420;2023-05-23T09:53:24;99257.41;;;31.86;30.95
48964;BME280;34776;48.180;16.420;2023-05-23T10:21:57;99231.81;;;32.46;30.77
48964;BME280;34776;48.180;16.420;2023-05-23T10:24:24;99243.41;;;32.48;30.35
48964;BME280;34776;48.180;16.420;2023-05-23T10:26:51;99245.13;;;32.19;30.19
48964;BME280;34776;48.180;16.420;2023-05-23T10:29:17;99244.72;;;32.04;30.53
48964;BME280;34776;48.180;16.420;2023-05-23T10:31:43;99230.66;;;32.12;30.57
48964;BME280;34776;48.180;16.420;2023-05-23T10:36:54;99224.44;;;32.16;29.78
48964;BME280;34776;48.180;16.420;2023-05-23T10:44:38;99211.56;;;32.29;30.44
48964;BME280;34776;48.180;16.420;2023-05-23T10:47:03;99217.38;;;32.09;30.50
48964;BME280;34776;48.180;16.420;2023-05-23T10:49:43;99207.63;;;32.25;30.45
48964;BME280;34776;48.180;16.420;2023-05-23T10:52:13;99204.00;;;32.54;30.48
48964;BME280;34776;48.180;16.420;2023-05-23T10:57:18;99203.66;;;32.74;30.45
48964;BME280;34776;48.180;16.420;2023-05-23T10:59:44;99209.88;;;32.58;29.91
48964;BME280;34776;48.180;16.420;2023-05-23T11:02:16;99214.34;;;32.52;30.00
48964;BME280;34776;48.180;16.420;2023-05-23T11:04:42;99210.56;;;32.65;29.92
48964;BME280;34776;48.180;16.420;2023-05-23T11:07:35;99198.50;;;32.66;28.94
48964;BME280;34776;48.180;16.420;2023-05-23T11:10:09;99198.75;;;32.65;28.21
48964;BME280;34776;48.180;16.420;2023-05-23T11:12:37;99185.94;;;32.59;28.93
48964;BME280;34776;48.180;16.420;2023-05-23T11:17:56;99181.78;;;32.91;28.47
48964;BME280;34776;48.180;16.420;2023-05-23T11:20:25;99170.66;;;33.10;28.08
48964;BME280;34776;48.180;16.420;2023-05-23T11:23:00;99169.31;;;33.01;28.36
48964;BME280;34776;48.180;16.420;2023-05-23T11:28:09;99148.00;;;32.84;29.07
48964;BME280;34776;48.180;16.420;2023-05-23T11:30:35;99154.97;;;32.87;29.21
48964;BME280;34776;48.180;16.420;2023-05-23T11:33:11;99148.50;;;32.81;29.63
48964;BME280;34776;48.180;16.420;2023-05-23T11:35:47;99141.78;;;33.24;29.81
48964;BME280;34776;48.180;16.420;2023-05-23T11:38:14;99146.78;;;33.68;29.27
48964;BME280;34776;48.180;16.420;2023-05-23T11:40:42;99156.56;;;34.04;28.65
48964;BME280;34776;48.180;16.420;2023-05-23T11:43:10;99159.66;;;34.08;28.94
48964;BME280;34776;48.180;16.420;2023-05-23T11:45:37;99161.50;;;33.73;29.00
48964;BME280;34776;48.180;16.420;2023-05-23T11:48:12;99168.19;;;33.78;28.57
48964;BME280;34776;48.180;16.420;2023-05-23T11:51:04;99163.47;;;33.61;27.78
48964;BME280;34776;48.180;16.420;2023-05-23T11:53:30;99167.63;;;33.23;27.88
48964;BME280;34776;48.180;16.420;2023-05-23T11:55:57;99160.59;;;32.68;27.18
48964;BME280;34776;48.180;16.420;2023-05-23T11:58:32;99160.28;;;32.23;27.06
48964;BME280;34776;48.180;16.420;2023-05-23T12:01:03;99154.50;;;32.12;27.99
48964;BME280;34776;48.180;16.420;2023-05-23T12:03:29;99151.75;;;32.12;27.95
48964;BME280;34776;48.180;16.420;2023-05-23T12:05:56;99147.13;;;32.13;27.99
48964;BME280;34776;48.180;16.420;2023-05-23T12:08:22;99150.81;;;32.19;27.66
48964;BME280;34776;48.180;16.420;2023-05-23T12:10:57;99147.84;;;32.20;27.84
48964;BME280;34776;48.180;16.420;2023-05-23T12:13:25;99138.66;;;32.38;28.07
48964;BME280;34776;48.180;16.420;2023-05-23T12:15:59;99138.91;;;32.48;27.21
48964;BME280;34776;48.180;16.420;2023-05-23T12:18:27;99134.72;;;32.46;27.32
48964;BME280;34776;48.180;16.420;2023-05-23T12:20:54;99138.06;;;32.48;27.51
48964;BME280;34776;48.180;16.420;2023-05-23T12:23:21;99135.09;;;32.49;27.32
48964;BME280;34776;48.180;16.420;2023-05-23T12:38:42;99141.78;;;33.01;27.06
48964;BME280;34776;48.180;16.420;2023-05-23T12:48:55;99149.22;;;32.65;27.53
48964;BME280;34776;48.180;16.420;2023-05-23T12:53:55;99140.84;;;32.36;26.69
48964;BME280;34776;48.180;16.420;2023-05-23T12:56:21;99141.53;;;32.20;26.88
48964;BME280;34776;48.180;16.420;2023-05-23T12:58:46;99149.34;;;32.04;27.39
48964;BME280;34776;48.180;16.420;2023-05-23T13:03:47;99151.47;;;31.42;28.35
48964;BME280;34776;48.180;16.420;2023-05-23T13:08:48;99138.53;;;30.93;29.63
48964;BME280;34776;48.180;16.420;2023-05-23T13:11:15;99134.81;;;30.81;29.79
48964;BME280;34776;48.180;16.420;2023-05-23T13:21:26;99137.38;;;31.01;30.64
48964;BME280;34776;48.180;16.420;2023-05-23T13:23:52;99130.75;;;31.27;30.73
48964;BME280;34776;48.180;16.420;2023-05-23T14:15:49;99221.69;;;27.39;39.65
48964;BME280;34776;48.180;16.420;2023-05-23T14:18:15;99234.03;;;27.28;40.00
48964;BME280;34776;48.180;16.420;2023-05-23T14:20:40;99252.56;;;26.83;39.85
48964;BME280;34776;48.180;16.420;2023-05-23T14:28:44;99264.28;;;25.08;43.26
48964;BME280;34776;48.180;16.420;2023-05-23T14:31:10;99251.47;;;24.64;45.41
48964;BME280;34776;48.180;16.420;2023-05-23T14:33:35;99254.56;;;24.29;48.22
48964;BME280;34776;48.180;16.420;2023-05-23T14:36:04;99255.94;;;23.79;51.37
48964;BME280;34776;48.180;16.420;2023-05-23T14:43:41;99258.34;;;23.18;52.81
48964;BME280;34776;48.180;16.420;2023-05-23T14:46:06;99256.81;;;22.99;54.38
48964;BME280;34776;48.180;16.420;2023-05-23T14:48:32;99258.53;;;23.00;54.70
48964;BME280;34776;48.180;16.420;2023-05-23T14:50:58;99269.50;;;23.23;54.16
48964;BME280;34776;48.180;16.420;2023-05-23T14:53:27;99285.03;;;23.46;53.22
48964;BME280;34776;48.180;16.420;2023-05-23T14:55:52;99297.38;;;23.57;52.93
48964;BME280;34776;48.180;16.420;2023-05-23T14:58:17;99301.59;;;23.59;52.89
48964;BME280;34776;48.180;16.420;2023-05-23T15:00:43;99301.97;;;23.48;52.35
48964;BME280;34776;48.180;16.420;2023-05-23T15:03:11;99308.63;;;23.29;52.83
48964;BME280;34776;48.180;16.420;2023-05-23T15:05:36;99316.25;;;23.25;53.10
48964;BME280;34776;48.180;16.420;2023-05-23T15:08:02;99337.59;;;23.20;52.47
48964;BME280;34776;48.180;16.420;2023-05-23T15:10:28;99353.88;;;23.20;52.28
48964;BME280;34776;48.180;16.420;2023-05-23T15:12:53;99358.63;;;23.18;52.71
48964;BME280;34776;48.180;16.420;2023-05-23T15:15:18;99371.00;;;23.13;53.28
48964;BME280;34776;48.180;16.420;2023-05-23T15:17:47;99374.56;;;23.13;53.47
48964;BME280;34776;48.180;16.420;2023-05-23T15:20:12;99393.38;;;23.06;53.99
48964;BME280;34776;48.180;16.420;2023-05-23T15:22:38;99400.94;;;22.86;54.70
48964;BME280;34776;48.180;16.420;2023-05-23T15:48:19;99474.19;;;20.58;72.45
48964;BME280;34776;48.180;16.420;2023-05-23T15:50:45;99479.84;;;20.55;69.04
48964;BME280;34776;48.180;16.420;2023-05-23T15:53:10;99471.97;;;20.43;72.32
48964;BME280;34776;48.180;16.420;2023-05-23T15:55:36;99470.63;;;20.30;75.08
48964;BME280;34776;48.180;16.420;2023-05-23T15:58:01;99473.56;;;20.08;76.94
48964;BME280;34776;48.180;16.420;2023-05-23T16:00:27;99471.44;;;20.02;79.72
48964;BME280;34776;48.180;16.420;2023-05-23T16:02:52;99469.34;;;19.96;81.22
48964;BME280;34776;48.180;16.420;2023-05-23T16:05:18;99466.53;;;19.88;81.90
48964;BME280;34776;48.180;16.420;2023-05-23T16:07:43;99472.09;;;19.77;82.71
48964;BME280;34776;48.180;16.420;2023-05-23T16:10:09;99470.25;;;19.67;83.88
48964;BME280;34776;48.180;16.420;2023-05-23T16:12:34;99462.63;;;19.53;84.35
48964;BME280;34776;48.180;16.420;2023-05-23T16:14:59;99471.16;;;19.39;84.13
48964;BME280;34776;48.180;16.420;2023-05-23T16:17:25;99470.44;;;19.27;85.74
48964;BME280;34776;48.180;16.420;2023-05-23T16:22:26;99480.25;;;19.28;87.14
48964;BME280;34776;48.180;16.420;2023-05-23T16:24:51;99485.91;;;19.15;87.73
48964;BME280;34776;48.180;16.420;2023-05-23T16:27:16;99491.28;;;19.05;87.93
48964;BME280;34776;48.180;16.420;2023-05-23T16:29:42;99483.63;;;19.01;88.74
48964;BME280;34776;48.180;16.420;2023-05-23T16:32:07;99480.25;;;18.99;88.99
48964;BME280;34776;48.180;16.420;2023-05-23T16:34:32;99482.78;;;18.91;89.36
48964;BME280;34776;48.180;16.420;2023-05-23T16:36:59;99479.41;;;18.98;90.43
48964;BME280;34776;48.180;16.420;2023-05-23T16:39:24;99479.06;;;18.92;89.45
48964;BME280;34776;48.180;16.420;2023-05-23T16:41:50;99474.69;;;18.91;90.38
48964;BME280;34776;48.180;16.420;2023-05-23T16:44:15;99479.09;;;19.01;90.41
48964;BME280;34776;48.180;16.420;2023-05-23T16:46:40;99477.97;;;19.04;90.88
48964;BME280;34776;48.180;16.420;2023-05-23T16:49:06;99474.56;;;19.02;90.96
48964;BME280;34776;48.180;16.420;2023-05-23T16:51:31;99471.44;;;18.97;90.75
48964;BME280;34776;48.180;16.420;2023-05-23T16:53:57;99474.56;;;19.12;91.50
48964;BME280;34776;48.180;16.420;2023-05-23T16:56:22;99477.28;;;19.21;89.81
48964;BME280;34776;48.180;16.420;2023-05-23T16:58:47;99476.09;;;19.34;89.25
48964;BME280;34776;48.180;16.420;2023-05-23T17:01:12;99475.97;;;19.45;88.66
48964;BME280;34776;48.180;16.420;2023-05-23T17:03:40;99474.25;;;19.44;88.55
48964;BME280;34776;48.180;16.420;2023-05-23T17:06:05;99468.72;;;19.45;88.01
48964;BME280;34776;48.180;16.420;2023-05-23T17:08:31;99473.97;;;19.47;88.00
48964;BME280;34776;48.180;16.420;2023-05-23T17:10:56;99477.38;;;19.49;87.59
48964;BME280;34776;48.180;16.420;2023-05-23T17:13:21;99474.94;;;19.56;87.78
48964;BME280;34776;48.180;16.420;2023-05-23T17:15:47;99474.50;;;19.60;87.34
48964;BME280;34776;48.180;16.420;2023-05-23T17:18:12;99468.84;;;19.63;86.63
48964;BME280;34776;48.180;16.420;2023-05-23T17:20:39;99470.84;;;19.61;86.74
48964;BME280;34776;48.180;16.420;2023-05-23T17:23:04;99462.84;;;19.70;87.09
48964;BME280;34776;48.180;16.420;2023-05-23T17:25:30;99461.16;;;19.68;85.53
48964;BME280;34776;48.180;16.420;2023-05-23T17:27:55;99458.06;;;19.63;85.19
48964;BME280;34776;48.180;16.420;2023-05-23T17:30:20;99458.34;;;19.70;85.72
48964;BME280;34776;48.180;16.420;2023-05-23T17:32:46;99461.72;;;19.82;85.78
48964;BME280;34776;48.180;16.420;2023-05-23T17:35:11;99458.28;;;19.90;85.16
48964;BME280;34776;48.180;16.420;2023-05-23T17:37:37;99461.09;;;19.98;85.73
48964;BME280;34776;48.180;16.420;2023-05-23T17:40:03;99459.09;;;20.10;85.38
48964;BME280;34776;48.180;16.420;2023-05-23T17:42:30;99455.06;;;20.14;84.16
48964;BME280;34776;48.180;16.420;2023-05-23T17:44:56;99460.16;;;20.17;83.47
48964;BME280;34776;48.180;16.420;2023-05-23T17:47:21;99449.66;;;20.14;83.25
48964;BME280;34776;48.180;16.420;2023-05-23T17:49:46;99440.59;;;20.15;83.08
48964;BME280;34776;48.180;16.420;2023-05-23T17:52:12;99438.72;;;20.15;82.95
48964;BME280;34776;48.180;16.420;2023-05-23T17:54:39;99441.75;;;20.12;82.91
48964;BME280;34776;48.180;16.420;2023-05-23T17:57:04;99435.50;;;20.12;83.02
48964;BME280;34776;48.180;16.420;2023-05-23T17:59:30;99430.38;;;20.08;82.74
48964;BME280;34776;48.180;16.420;2023-05-23T18:01:57;99440.47;;;20.06;83.37
48964;BME280;34776;48.180;16.420;2023-05-23T18:04:22;99444.19;;;20.05;83.66
48964;BME280;34776;48.180;16.420;2023-05-23T18:06:49;99448.88;;;20.03;83.42
48964;BME280;34776;48.180;16.420;2023-05-23T18:09:14;99451.16;;;19.98;83.43
48964;BME280;34776;48.180;16.420;2023-05-23T18:11:40;99450.91;;;19.92;82.87
48964;BME280;34776;48.180;16.420;2023-05-23T18:14:07;99455.19;;;19.84;82.83
48964;BME280;34776;48.180;16.420;2023-05-23T18:16:32;99454.91;;;19.78;83.07
48964;BME280;34776;48.180;16.420;2023-05-23T18:18:57;99451.81;;;19.73;83.07
48964;BME280;34776;48.180;16.420;2023-05-23T18:21:23;99456.06;;;19.65;82.85
48964;BME280;34776;48.180;16.420;2023-05-23T18:23:49;99461.47;;;19.56;82.42
48964;BME280;34776;48.180;16.420;2023-05-23T18:26:14;99463.34;;;19.45;82.23
48964;BME280;34776;48.180;16.420;2023-05-23T18:28:40;99470.56;;;19.45;82.44
48964;BME280;34776;48.180;16.420;2023-05-23T18:31:05;99464.03;;;19.47;81.55
48964;BME280;34776;48.180;16.420;2023-05-23T18:33:30;99463.19;;;19.47;80.40
48964;BME280;34776;48.180;16.420;2023-05-23T18:36:19;99467.03;;;19.44;79.36
48964;BME280;34776;48.180;16.420;2023-05-23T18:38:44;99472.97;;;19.48;79.97
48964;BME280;34776;48.180;16.420;2023-05-23T18:41:10;99473.13;;;19.46;78.60
48964;BME280;34776;48.180;16.420;2023-05-23T18:43:35;99476.94;;;19.44;78.30
48964;BME280;34776;48.180;16.420;2023-05-23T18:46:01;99483.47;;;19.41;78.32
48964;BME280;34776;48.180;16.420;2023-05-23T18:48:26;99482.78;;;19.39;78.20
48964;BME280;34776;48.180;16.420;2023-05-23T18:50:51;99488.28;;;19.38;77.64
48964;BME280;34776;48.180;16.420;2023-05-23T18:53:18;99494.25;;;19.32;77.20
48964;BME280;34776;48.180;16.420;2023-05-23T18:55:43;99496.41;;;19.28;77.25
48964;BME280;34776;48.180;16.420;2023-05-23T18:58:09;99503.59;;;19.27;77.21
48964;BME280;34776;48.180;16.420;2023-05-23T19:00:34;99506.31;;;19.27;77.03
48964;BME280;34776;48.180;16.420;2023-05-23T19:02:59;99505.75;;;19.24;77.05
48964;BME280;34776;48.180;16.420;2023-05-23T19:05:25;99498.38;;;19.16;76.83
48964;BME280;34776;48.180;16.420;2023-05-23T19:07:51;99497.81;;;19.13;76.89
48964;BME280;34776;48.180;16.420;2023-05-23T19:10:16;99503.75;;;19.06;76.97
48964;BME280;34776;48.180;16.420;2023-05-23T19:12:41;99512.84;;;19.05;77.05
48964;BME280;34776;48.180;16.420;2023-05-23T19:15:08;99504.19;;;19.02;76.95
48964;BME280;34776;48.180;16.420;2023-05-23T19:17:34;99496.97;;;19.02;77.08
48964;BME280;34776;48.180;16.420;2023-05-23T19:20:00;99493.00;;;18.97;77.01
48964;BME280;34776;48.180;16.420;2023-05-23T19:22:26;99502.34;;;18.93;77.11
48964;BME280;34776;48.180;16.420;2023-05-23T19:24:51;99500.63;;;18.92;77.72
48964;BME280;34776;48.180;16.420;2023-05-23T19:27:17;99504.56;;;18.88;77.51
48964;BME280;34776;48.180;16.420;2023-05-23T19:29:42;99502.88;;;18.86;78.06
48964;BME280;34776;48.180;16.420;2023-05-23T19:32:08;99507.28;;;18.88;77.85
48964;BME280;34776;48.180;16.420;2023-05-23T19:34:33;99507.28;;;18.88;77.56
48964;BME280;34776;48.180;16.420;2023-05-23T19:36:59;99505.72;;;18.85;77.68
48964;BME280;34776;48.180;16.420;2023-05-23T19:39:25;99506.56;;;18.85;77.66
48964;BME280;34776;48.180;16.420;2023-05-23T19:41:51;99511.53;;;18.80;77.36
48964;BME280;34776;48.180;16.420;2023-05-23T19:44:17;99514.47;;;18.77;77.48
48964;BME280;34776;48.180;16.420;2023-05-23T19:46:42;99511.06;;;18.75;77.56
48964;BME280;34776;48.180;16.420;2023-05-23T19:49:08;99515.75;;;18.73;76.96
48964;BME280;34776;48.180;16.420;2023-05-23T19:51:33;99511.31;;;18.72;77.28
48964;BME280;34776;48.180;16.420;2023-05-23T19:53:59;99523.81;;;18.73;77.06
48964;BME280;34776;48.180;16.420;2023-05-23T19:56:24;99524.06;;;18.70;77.19
48964;BME280;34776;48.180;16.420;2023-05-23T19:58:50;99531.16;;;18.71;76.92
48964;BME280;34776;48.180;16.420;2023-05-23T20:01:15;99523.22;;;18.70;77.08
48964;BME280;34776;48.180;16.420;2023-05-23T20:03:41;99525.06;;;18.69;77.12